sensor_id;sensor_type;location;lat;lon;timestamp;P1;durP1;ratioP1;P2;durP2;ratioP2
1751;SDS011;873;47.696;8.068;2022-11-15T00:02:18;3.70;;;2.57;;
1751;SDS011;873;47.696;8.068;2022-11-15T00:04:44;4.10;;;2.60;;
1751;SDS011;873;47.696;8.068;2022-11-15T00:07:09;5.43;;;2.27;;
1751;SDS011;873;47.696;8.068;2022-11-15T00:09:35;3.83;;;2.00;;
1751;SDS011;873;47.696;8.068;2022-11-15T00:12:00;4.30;;;2.57;;
1751;SDS011;873;47.696;8.068;2022-11-15T00:14:26;3.43;;;2.13;;
1751;SDS011;873;47.696;8.068;2022-11-15T00:16:52;3.97;;;2.30;;
1751;SDS011;873;47.696;8.068;2022-11-15T00:19:17;3.60;;;1.83;;
1751;SDS011;873;47.696;8.068;2022-11-15T00:21:43;3.83;;;2.27;;
1751;SDS011;873;47.696;8.068;2022-11-15T00:24:08;2.40;;;1.80;;
1751;SDS011;873;47.696;8.068;2022-11-15T00:26:34;3.17;;;2.10;;
1751;SDS011;873;47.696;8.068;2022-11-15T00:28:59;2.63;;;2.00;;
1751;SDS011;873;47.696;8.068;2022-11-15T00:31:25;2.13;;;1.83;;
1751;SDS011;873;47.696;8.068;2022-11-15T00:33:50;3.47;;;2.20;;
1751;SDS011;873;47.696;8.068;2022-11-15T00:36:16;5.57;;;2.40;;
1751;SDS011;873;47.696;8.068;2022-11-15T00:38:41;2.20;;;1.83;;
1751;SDS011;873;47.696;8.068;2022-11-15T00:41:07;2.60;;;1.93;;
1751;SDS011;873;47.696;8.068;2022-11-15T00:43:33;8.17;;;2.07;;
1751;SDS011;873;47.696;8.068;2022-11-15T00:45:59;2.27;;;1.80;;
1751;SDS011;873;47.696;8.068;2022-11-15T00:48:25;3.03;;;1.80;;
1751;SDS011;873;47.696;8.068;2022-11-15T00:50:50;3.00;;;2.10;;
1751;SDS011;873;47.696;8.068;2022-11-15T00:53:16;2.27;;;1.70;;
1751;SDS011;873;47.696;8.068;2022-11-15T00:55:42;3.70;;;1.60;;
1751;SDS011;873;47.696;8.068;2022-11-15T00:58:07;2.50;;;1.97;;
1751;SDS011;873;47.696;8.068;2022-11-15T01:00:33;2.23;;;1.90;;
1751;SDS011;873;47.696;8.068;2022-11-15T01:03:00;4.27;;;1.80;;
1751;SDS011;873;47.696;8.068;2022-11-15T01:05:26;2.93;;;2.10;;
1751;SDS011;873;47.696;8.068;2022-11-15T01:07:52;3.30;;;2.17;;
1751;SDS011;873;47.696;8.068;2022-11-15T01:10:18;3.73;;;2.00;;
1751;SDS011;873;47.696;8.068;2022-11-15T01:12:44;3.00;;;2.10;;
1751;SDS011;873;47.696;8.068;2022-11-15T01:15:10;3.90;;;2.50;;
1751;SDS011;873;47.696;8.068;2022-11-15T01:17:35;3.13;;;2.00;;
1751;SDS011;873;47.696;8.068;2022-11-15T01:20:01;3.07;;;2.30;;
1751;SDS011;873;47.696;8.068;2022-11-15T01:22:28;3.00;;;2.13;;
1751;SDS011;873;47.696;8.068;2022-11-15T01:24:53;4.43;;;2.43;;
1751;SDS011;873;47.696;8.068;2022-11-15T01:27:19;3.80;;;2.33;;
1751;SDS011;873;47.696;8.068;2022-11-15T01:29:44;2.93;;;2.33;;
1751;SDS011;873;47.696;8.068;2022-11-15T01:32:10;2.37;;;1.67;;
1751;SDS011;873;47.696;8.068;2022-11-15T01:34:35;1.63;;;1.53;;
1751;SDS011;873;47.696;8.068;2022-11-15T01:37:01;2.57;;;1.87;;
1751;SDS011;873;47.696;8.068;2022-11-15T01:39:26;2.63;;;2.03;;
1751;SDS011;873;47.696;8.068;2022-11-15T01:41:52;3.30;;;2.10;;
1751;SDS011;873;47.696;8.068;2022-11-15T01:46:59;3.17;;;1.70;;
1751;SDS011;873;47.696;8.068;2022-11-15T01:49:27;4.40;;;1.90;;
1751;SDS011;873;47.696;8.068;2022-11-15T01:51:55;4.20;;;1.60;;
1751;SDS011;873;47.696;8.068;2022-11-15T01:54:22;2.90;;;2.00;;
1751;SDS011;873;47.696;8.068;2022-11-15T01:56:50;2.53;;;1.70;;
1751;SDS011;873;47.696;8.068;2022-11-15T01:59:18;2.80;;;1.30;;
1751;SDS011;873;47.696;8.068;2022-11-15T02:01:44;1.53;;;1.43;;
1751;SDS011;873;47.696;8.068;2022-11-15T02:04:12;3.03;;;2.10;;
1751;SDS011;873;47.696;8.068;2022-11-15T02:06:43;3.10;;;1.87;;
1751;SDS011;873;47.696;8.068;2022-11-15T02:09:09;2.83;;;2.20;;
1751;SDS011;873;47.696;8.068;2022-11-15T02:11:36;2.00;;;1.50;;
1751;SDS011;873;47.696;8.068;2022-11-15T02:14:02;2.70;;;1.50;;
1751;SDS011;873;47.696;8.068;2022-11-15T02:30:14;3.67;;;2.00;;
1751;SDS011;873;47.696;8.068;2022-11-15T02:32:42;2.00;;;1.80;;
1751;SDS011;873;47.696;8.068;2022-11-15T02:37:51;3.43;;;1.73;;
1751;SDS011;873;47.696;8.068;2022-11-15T02:43:12;2.77;;;2.00;;
1751;SDS011;873;47.696;8.068;2022-11-15T02:46:02;2.67;;;1.73;;
1751;SDS011;873;47.696;8.068;2022-11-15T02:48:32;2.87;;;1.80;;
1751;SDS011;873;47.696;8.068;2022-11-15T02:50:58;3.43;;;1.77;;
1751;SDS011;873;47.696;8.068;2022-11-15T02:53:24;2.20;;;1.97;;
1751;SDS011;873;47.696;8.068;2022-11-15T02:55:50;3.10;;;1.90;;
1751;SDS011;873;47.696;8.068;2022-11-15T03:11:27;1.53;;;1.43;;
1751;SDS011;873;47.696;8.068;2022-11-15T03:21:48;1.83;;;1.10;;
1751;SDS011;873;47.696;8.068;2022-11-15T03:24:15;2.07;;;1.13;;
1751;SDS011;873;47.696;8.068;2022-11-15T03:26:41;1.80;;;1.03;;
1751;SDS011;873;47.696;8.068;2022-11-15T03:29:11;1.87;;;1.30;;
1751;SDS011;873;47.696;8.068;2022-11-15T03:31:40;1.67;;;1.57;;
1751;SDS011;873;47.696;8.068;2022-11-15T03:36:48;2.07;;;1.50;;
1751;SDS011;873;47.696;8.068;2022-11-15T03:39:15;1.10;;;1.00;;
1751;SDS011;873;47.696;8.068;2022-11-15T03:44:13;1.87;;;1.20;;
1751;SDS011;873;47.696;8.068;2022-11-15T03:46:57;1.67;;;1.07;;
1751;SDS011;873;47.696;8.068;2022-11-15T03:49:28;1.10;;;0.90;;
1751;SDS011;873;47.696;8.068;2022-11-15T03:51:57;1.40;;;0.90;;
1751;SDS011;873;47.696;8.068;2022-11-15T03:54:23;1.90;;;1.10;;
1751;SDS011;873;47.696;8.068;2022-11-15T03:56:48;2.17;;;0.90;;
1751;SDS011;873;47.696;8.068;2022-11-15T03:59:14;1.20;;;1.03;;
1751;SDS011;873;47.696;8.068;2022-11-15T04:01:52;1.17;;;1.07;;
1751;SDS011;873;47.696;8.068;2022-11-15T04:04:17;0.87;;;0.83;;
1751;SDS011;873;47.696;8.068;2022-11-15T04:06:43;1.17;;;0.90;;
1751;SDS011;873;47.696;8.068;2022-11-15T04:09:08;5.70;;;4.30;;
1751;SDS011;873;47.696;8.068;2022-11-15T04:11:33;4.20;;;3.47;;
1751;SDS011;873;47.696;8.068;2022-11-15T04:13:59;2.33;;;1.00;;
1751;SDS011;873;47.696;8.068;2022-11-15T04:16:25;2.63;;;0.97;;
1751;SDS011;873;47.696;8.068;2022-11-15T04:18:50;1.50;;;1.10;;
1751;SDS011;873;47.696;8.068;2022-11-15T04:21:35;2.03;;;0.90;;
1751;SDS011;873;47.696;8.068;2022-11-15T04:24:21;1.47;;;1.00;;
1751;SDS011;873;47.696;8.068;2022-11-15T04:26:46;1.23;;;0.97;;
1751;SDS011;873;47.696;8.068;2022-11-15T04:29:12;0.90;;;0.80;;
1751;SDS011;873;47.696;8.068;2022-11-15T04:31:57;1.83;;;0.70;;
1751;SDS011;873;47.696;8.068;2022-11-15T04:34:22;1.67;;;0.80;;
1751;SDS011;873;47.696;8.068;2022-11-15T04:36:48;2.77;;;1.03;;
1751;SDS011;873;47.696;8.068;2022-11-15T04:39:33;2.27;;;1.00;;
1751;SDS011;873;47.696;8.068;2022-11-15T04:41:59;2.33;;;0.93;;
1751;SDS011;873;47.696;8.068;2022-11-15T04:44:24;2.57;;;0.73;;
1751;SDS011;873;47.696;8.068;2022-11-15T04:46:50;0.70;;;0.60;;
1751;SDS011;873;47.696;8.068;2022-11-15T04:49:15;1.07;;;0.63;;
1751;SDS011;873;47.696;8.068;2022-11-15T04:51:41;0.73;;;0.40;;
1751;SDS011;873;47.696;8.068;2022-11-15T04:54:06;1.87;;;0.70;;
1751;SDS011;873;47.696;8.068;2022-11-15T04:56:32;1.53;;;0.70;;
1751;SDS011;873;47.696;8.068;2022-11-15T04:58:58;1.07;;;0.60;;
1751;SDS011;873;47.696;8.068;2022-11-15T05:01:23;1.80;;;0.50;;
1751;SDS011;873;47.696;8.068;2022-11-15T05:03:49;0.87;;;0.50;;
1751;SDS011;873;47.696;8.068;2022-11-15T05:06:34;0.57;;;0.50;;
1751;SDS011;873;47.696;8.068;2022-11-15T05:09:00;0.47;;;0.47;;
1751;SDS011;873;47.696;8.068;2022-11-15T05:11:26;0.50;;;0.50;;
1751;SDS011;873;47.696;8.068;2022-11-15T05:13:52;0.60;;;0.50;;
1751;SDS011;873;47.696;8.068;2022-11-15T05:16:18;0.90;;;0.60;;
1751;SDS011;873;47.696;8.068;2022-11-15T05:18:43;0.47;;;0.47;;
1751;SDS011;873;47.696;8.068;2022-11-15T05:21:10;0.50;;;0.50;;
1751;SDS011;873;47.696;8.068;2022-11-15T05:23:37;1.37;;;0.50;;
1751;SDS011;873;47.696;8.068;2022-11-15T05:26:03;0.67;;;0.50;;
1751;SDS011;873;47.696;8.068;2022-11-15T05:28:31;1.63;;;0.50;;
1751;SDS011;873;47.696;8.068;2022-11-15T05:31:01;0.60;;;0.60;;
1751;SDS011;873;47.696;8.068;2022-11-15T05:33:27;0.30;;;0.30;;
1751;SDS011;873;47.696;8.068;2022-11-15T05:35:58;1.57;;;0.60;;
1751;SDS011;873;47.696;8.068;2022-11-15T05:38:28;1.40;;;0.53;;
1751;SDS011;873;47.696;8.068;2022-11-15T05:40:53;0.93;;;0.50;;
1751;SDS011;873;47.696;8.068;2022-11-15T05:43:20;1.07;;;0.60;;
1751;SDS011;873;47.696;8.068;2022-11-15T05:45:45;1.07;;;0.50;;
1751;SDS011;873;47.696;8.068;2022-11-15T05:48:11;1.53;;;0.60;;
1751;SDS011;873;47.696;8.068;2022-11-15T05:50:38;3.17;;;0.70;;
1751;SDS011;873;47.696;8.068;2022-11-15T05:53:04;0.70;;;0.40;;
1751;SDS011;873;47.696;8.068;2022-11-15T05:55:30;1.07;;;0.50;;
1751;SDS011;873;47.696;8.068;2022-11-15T05:57:56;1.50;;;0.60;;
1751;SDS011;873;47.696;8.068;2022-11-15T06:00:21;1.10;;;0.60;;
1751;SDS011;873;47.696;8.068;2022-11-15T06:02:47;0.60;;;0.40;;
1751;SDS011;873;47.696;8.068;2022-11-15T06:05:12;0.67;;;0.50;;
1751;SDS011;873;47.696;8.068;2022-11-15T06:07:38;0.73;;;0.67;;
1751;SDS011;873;47.696;8.068;2022-11-15T06:10:03;0.50;;;0.50;;
1751;SDS011;873;47.696;8.068;2022-11-15T06:12:29;0.87;;;0.70;;
1751;SDS011;873;47.696;8.068;2022-11-15T06:14:54;0.97;;;0.50;;
1751;SDS011;873;47.696;8.068;2022-11-15T06:17:20;2.37;;;0.97;;
1751;SDS011;873;47.696;8.068;2022-11-15T06:19:45;0.50;;;0.50;;
1751;SDS011;873;47.696;8.068;2022-11-15T06:22:11;1.00;;;0.83;;
1751;SDS011;873;47.696;8.068;2022-11-15T06:24:36;1.80;;;0.80;;
1751;SDS011;873;47.696;8.068;2022-11-15T06:27:02;1.43;;;0.63;;
1751;SDS011;873;47.696;8.068;2022-11-15T06:29:28;1.90;;;0.90;;
1751;SDS011;873;47.696;8.068;2022-11-15T06:31:53;0.60;;;0.57;;
1751;SDS011;873;47.696;8.068;2022-11-15T06:34:19;2.77;;;0.90;;
1751;SDS011;873;47.696;8.068;2022-11-15T06:36:44;1.47;;;0.70;;
1751;SDS011;873;47.696;8.068;2022-11-15T06:39:09;0.77;;;0.60;;
1751;SDS011;873;47.696;8.068;2022-11-15T06:41:35;0.67;;;0.67;;
1751;SDS011;873;47.696;8.068;2022-11-15T06:44:02;0.70;;;0.70;;
1751;SDS011;873;47.696;8.068;2022-11-15T06:46:28;2.87;;;0.80;;
1751;SDS011;873;47.696;8.068;2022-11-15T06:48:54;1.70;;;0.60;;
1751;SDS011;873;47.696;8.068;2022-11-15T06:51:20;1.67;;;1.10;;
1751;SDS011;873;47.696;8.068;2022-11-15T06:53:46;2.53;;;1.10;;
1751;SDS011;873;47.696;8.068;2022-11-15T06:56:11;2.37;;;0.80;;
1751;SDS011;873;47.696;8.068;2022-11-15T06:58:37;0.80;;;0.80;;
1751;SDS011;873;47.696;8.068;2022-11-15T07:01:05;0.80;;;0.80;;
1751;SDS011;873;47.696;8.068;2022-11-15T07:03:34;5.63;;;4.37;;
1751;SDS011;873;47.696;8.068;2022-11-15T07:06:00;1.83;;;1.50;;
1751;SDS011;873;47.696;8.068;2022-11-15T07:08:27;1.53;;;0.70;;
1751;SDS011;873;47.696;8.068;2022-11-15T07:10:54;0.50;;;0.50;;
1751;SDS011;873;47.696;8.068;2022-11-15T07:13:19;2.33;;;1.20;;
1751;SDS011;873;47.696;8.068;2022-11-15T07:15:45;2.17;;;2.03;;
1751;SDS011;873;47.696;8.068;2022-11-15T07:18:11;1.67;;;1.07;;
1751;SDS011;873;47.696;8.068;2022-11-15T07:20:36;1.10;;;1.00;;
1751;SDS011;873;47.696;8.068;2022-11-15T07:23:02;1.47;;;0.90;;
1751;SDS011;873;47.696;8.068;2022-11-15T07:25:28;1.80;;;1.00;;
1751;SDS011;873;47.696;8.068;2022-11-15T07:27:55;0.90;;;0.90;;
1751;SDS011;873;47.696;8.068;2022-11-15T07:30:21;1.13;;;1.13;;
1751;SDS011;873;47.696;8.068;2022-11-15T07:32:46;0.70;;;0.70;;
1751;SDS011;873;47.696;8.068;2022-11-15T07:35:12;0.80;;;0.80;;
1751;SDS011;873;47.696;8.068;2022-11-15T07:37:37;2.93;;;0.77;;
1751;SDS011;873;47.696;8.068;2022-11-15T07:40:03;1.23;;;0.80;;
1751;SDS011;873;47.696;8.068;2022-11-15T07:45:39;147.33;;;8.50;;
1751;SDS011;873;47.696;8.068;2022-11-15T07:48:06;158.77;;;9.43;;
1751;SDS011;873;47.696;8.068;2022-11-15T07:50:32;95.37;;;5.67;;
1751;SDS011;873;47.696;8.068;2022-11-15T07:52:58;15.07;;;1.80;;
1751;SDS011;873;47.696;8.068;2022-11-15T07:55:25;195.17;;;8.63;;
1751;SDS011;873;47.696;8.068;2022-11-15T07:57:59;266.93;;;14.10;;
1751;SDS011;873;47.696;8.068;2022-11-15T08:00:26;162.57;;;7.80;;
1751;SDS011;873;47.696;8.068;2022-11-15T08:02:52;96.70;;;7.00;;
1751;SDS011;873;47.696;8.068;2022-11-15T08:05:17;114.57;;;6.53;;
1751;SDS011;873;47.696;8.068;2022-11-15T08:07:43;41.67;;;2.70;;
1751;SDS011;873;47.696;8.068;2022-11-15T08:10:08;51.27;;;3.37;;
1751;SDS011;873;47.696;8.068;2022-11-15T08:12:34;92.63;;;5.47;;
1751;SDS011;873;47.696;8.068;2022-11-15T08:15:00;164.07;;;7.93;;
1751;SDS011;873;47.696;8.068;2022-11-15T08:17:26;56.57;;;4.17;;
1751;SDS011;873;47.696;8.068;2022-11-15T08:19:51;10.07;;;2.10;;
1751;SDS011;873;47.696;8.068;2022-11-15T08:22:17;9.40;;;2.30;;
1751;SDS011;873;47.696;8.068;2022-11-15T08:24:43;17.00;;;2.20;;
1751;SDS011;873;47.696;8.068;2022-11-15T08:27:09;20.63;;;2.40;;
1751;SDS011;873;47.696;8.068;2022-11-15T08:29:40;44.20;;;3.03;;
1751;SDS011;873;47.696;8.068;2022-11-15T08:32:07;24.40;;;3.00;;
1751;SDS011;873;47.696;8.068;2022-11-15T08:34:33;45.37;;;3.60;;
1751;SDS011;873;47.696;8.068;2022-11-15T08:36:59;26.07;;;3.30;;
1751;SDS011;873;47.696;8.068;2022-11-15T08:39:24;84.00;;;6.53;;
1751;SDS011;873;47.696;8.068;2022-11-15T08:41:50;67.83;;;5.90;;
1751;SDS011;873;47.696;8.068;2022-11-15T08:44:15;17.30;;;3.97;;
1751;SDS011;873;47.696;8.068;2022-11-15T08:46:41;55.80;;;5.27;;
1751;SDS011;873;47.696;8.068;2022-11-15T08:49:06;56.10;;;4.37;;
1751;SDS011;873;47.696;8.068;2022-11-15T08:51:32;50.30;;;3.70;;
1751;SDS011;873;47.696;8.068;2022-11-15T08:53:57;114.13;;;7.50;;
1751;SDS011;873;47.696;8.068;2022-11-15T08:56:23;122.03;;;8.20;;
1751;SDS011;873;47.696;8.068;2022-11-15T08:58:48;17.07;;;3.30;;
1751;SDS011;873;47.696;8.068;2022-11-15T09:01:15;3.40;;;2.33;;
1751;SDS011;873;47.696;8.068;2022-11-15T09:03:42;3.97;;;3.00;;
1751;SDS011;873;47.696;8.068;2022-11-15T09:06:08;4.27;;;3.10;;
1751;SDS011;873;47.696;8.068;2022-11-15T09:08:34;6.33;;;3.30;;
1751;SDS011;873;47.696;8.068;2022-11-15T09:11:02;3.80;;;3.40;;
1751;SDS011;873;47.696;8.068;2022-11-15T09:13:28;4.03;;;3.63;;
1751;SDS011;873;47.696;8.068;2022-11-15T09:15:57;5.13;;;3.70;;
1751;SDS011;873;47.696;8.068;2022-11-15T09:18:24;3.90;;;3.60;;
1751;SDS011;873;47.696;8.068;2022-11-15T09:20:50;4.90;;;3.77;;
1751;SDS011;873;47.696;8.068;2022-11-15T09:23:16;4.70;;;3.93;;
1751;SDS011;873;47.696;8.068;2022-11-15T09:25:41;6.10;;;3.70;;
1751;SDS011;873;47.696;8.068;2022-11-15T09:28:07;5.57;;;3.67;;
1751;SDS011;873;47.696;8.068;2022-11-15T09:30:33;4.53;;;3.77;;
1751;SDS011;873;47.696;8.068;2022-11-15T09:32:58;4.43;;;3.17;;
1751;SDS011;873;47.696;8.068;2022-11-15T09:35:23;3.67;;;3.20;;
1751;SDS011;873;47.696;8.068;2022-11-15T09:37:49;6.30;;;3.23;;
1751;SDS011;873;47.696;8.068;2022-11-15T09:40:15;8.47;;;3.97;;
1751;SDS011;873;47.696;8.068;2022-11-15T09:48:33;4.43;;;3.73;;
1751;SDS011;873;47.696;8.068;2022-11-15T09:51:02;4.30;;;3.90;;
1751;SDS011;873;47.696;8.068;2022-11-15T09:53:30;4.87;;;4.27;;
1751;SDS011;873;47.696;8.068;2022-11-15T09:56:01;6.33;;;4.30;;
1751;SDS011;873;47.696;8.068;2022-11-15T09:58:50;5.23;;;3.60;;
1751;SDS011;873;47.696;8.068;2022-11-15T10:01:30;4.60;;;3.43;;
1751;SDS011;873;47.696;8.068;2022-11-15T10:04:09;2.70;;;1.70;;
1751;SDS011;873;47.696;8.068;2022-11-15T10:06:36;3.10;;;2.30;;
1751;SDS011;873;47.696;8.068;2022-11-15T10:09:11;4.27;;;1.90;;
1751;SDS011;873;47.696;8.068;2022-11-15T10:11:41;5.47;;;2.90;;
1751;SDS011;873;47.696;8.068;2022-11-15T10:14:10;5.37;;;3.50;;
1751;SDS011;873;47.696;8.068;2022-11-15T10:19:26;4.40;;;3.03;;
1751;SDS011;873;47.696;8.068;2022-11-15T10:24:34;3.07;;;2.10;;
1751;SDS011;873;47.696;8.068;2022-11-15T10:27:13;3.20;;;1.63;;
1751;SDS011;873;47.696;8.068;2022-11-15T10:29:44;2.47;;;1.40;;
1751;SDS011;873;47.696;8.068;2022-11-15T10:32:12;2.20;;;1.77;;
1751;SDS011;873;47.696;8.068;2022-11-15T10:34:38;1.83;;;1.40;;
1751;SDS011;873;47.696;8.068;2022-11-15T10:37:03;2.93;;;1.43;;
1751;SDS011;873;47.696;8.068;2022-11-15T10:39:29;2.43;;;1.30;;
1751;SDS011;873;47.696;8.068;2022-11-15T10:41:55;1.60;;;1.23;;
1751;SDS011;873;47.696;8.068;2022-11-15T10:44:24;2.43;;;1.30;;
1751;SDS011;873;47.696;8.068;2022-11-15T10:49:21;2.10;;;1.50;;
1751;SDS011;873;47.696;8.068;2022-11-15T10:51:53;1.20;;;1.10;;
1751;SDS011;873;47.696;8.068;2022-11-15T10:54:25;1.97;;;1.60;;
1751;SDS011;873;47.696;8.068;2022-11-15T10:56:54;2.33;;;1.67;;
1751;SDS011;873;47.696;8.068;2022-11-15T10:59:24;2.03;;;1.60;;
1751;SDS011;873;47.696;8.068;2022-11-15T11:01:52;1.97;;;1.30;;
1751;SDS011;873;47.696;8.068;2022-11-15T11:04:22;4.03;;;1.07;;
1751;SDS011;873;47.696;8.068;2022-11-15T11:06:56;2.47;;;1.07;;
1751;SDS011;873;47.696;8.068;2022-11-15T11:09:39;1.87;;;1.27;;
1751;SDS011;873;47.696;8.068;2022-11-15T11:12:09;1.80;;;1.10;;
1751;SDS011;873;47.696;8.068;2022-11-15T11:14:36;1.77;;;1.00;;
1751;SDS011;873;47.696;8.068;2022-11-15T11:17:06;1.93;;;1.27;;
1751;SDS011;873;47.696;8.068;2022-11-15T11:27:17;1.77;;;0.77;;
1751;SDS011;873;47.696;8.068;2022-11-15T11:37:52;1.33;;;0.80;;
1751;SDS011;873;47.696;8.068;2022-11-15T11:40:28;1.03;;;0.90;;
1751;SDS011;873;47.696;8.068;2022-11-15T11:43:19;1.00;;;0.70;;
1751;SDS011;873;47.696;8.068;2022-11-15T11:45:52;0.90;;;0.80;;
1751;SDS011;873;47.696;8.068;2022-11-15T11:48:29;0.93;;;0.77;;
1751;SDS011;873;47.696;8.068;2022-11-15T11:51:09;0.87;;;0.60;;
1751;SDS011;873;47.696;8.068;2022-11-15T11:56:08;3.60;;;1.00;;
1751;SDS011;873;47.696;8.068;2022-11-15T11:58:47;1.47;;;0.83;;
1751;SDS011;873;47.696;8.068;2022-11-15T12:01:30;2.30;;;1.03;;
1751;SDS011;873;47.696;8.068;2022-11-15T12:04:03;1.47;;;0.80;;
1751;SDS011;873;47.696;8.068;2022-11-15T12:06:36;3.50;;;1.20;;
1751;SDS011;873;47.696;8.068;2022-11-15T12:09:07;0.97;;;0.83;;
1751;SDS011;873;47.696;8.068;2022-11-15T12:16:54;0.70;;;0.70;;
1751;SDS011;873;47.696;8.068;2022-11-15T12:19:20;2.40;;;1.10;;
1751;SDS011;873;47.696;8.068;2022-11-15T12:21:48;2.17;;;1.17;;
1751;SDS011;873;47.696;8.068;2022-11-15T12:26:52;2.80;;;1.67;;
1751;SDS011;873;47.696;8.068;2022-11-15T12:29:23;1.30;;;1.20;;
1751;SDS011;873;47.696;8.068;2022-11-15T12:31:54;2.70;;;1.50;;
1751;SDS011;873;47.696;8.068;2022-11-15T12:37:32;1.80;;;1.60;;
1751;SDS011;873;47.696;8.068;2022-11-15T12:42:57;2.70;;;2.50;;
1751;SDS011;873;47.696;8.068;2022-11-15T12:47:53;8.57;;;3.00;;
1751;SDS011;873;47.696;8.068;2022-11-15T12:50:52;3.60;;;3.30;;
1751;SDS011;873;47.696;8.068;2022-11-15T12:58:45;4.10;;;3.70;;
1751;SDS011;873;47.696;8.068;2022-11-15T13:06:44;7.57;;;3.63;;
1751;SDS011;873;47.696;8.068;2022-11-15T13:17:16;3.10;;;2.90;;
1751;SDS011;873;47.696;8.068;2022-11-15T13:19:46;7.93;;;4.13;;
1751;SDS011;873;47.696;8.068;2022-11-15T13:22:13;3.70;;;3.40;;
1751;SDS011;873;47.696;8.068;2022-11-15T13:25:00;4.97;;;3.67;;
1751;SDS011;873;47.696;8.068;2022-11-15T13:27:27;6.17;;;3.50;;
1751;SDS011;873;47.696;8.068;2022-11-15T13:29:52;3.63;;;3.30;;
1751;SDS011;873;47.696;8.068;2022-11-15T13:32:18;3.63;;;3.33;;
1751;SDS011;873;47.696;8.068;2022-11-15T13:34:45;6.43;;;3.50;;
1751;SDS011;873;47.696;8.068;2022-11-15T13:39:45;4.97;;;3.27;;
1751;SDS011;873;47.696;8.068;2022-11-15T13:42:18;4.37;;;3.57;;
1751;SDS011;873;47.696;8.068;2022-11-15T13:45:02;4.73;;;3.87;;
1751;SDS011;873;47.696;8.068;2022-11-15T13:47:29;3.40;;;3.10;;
1751;SDS011;873;47.696;8.068;2022-11-15T13:49:56;3.53;;;2.90;;
1751;SDS011;873;47.696;8.068;2022-11-15T13:52:22;3.57;;;2.97;;
1751;SDS011;873;47.696;8.068;2022-11-15T13:57:31;4.93;;;3.73;;
1751;SDS011;873;47.696;8.068;2022-11-15T14:00:03;4.60;;;4.07;;
1751;SDS011;873;47.696;8.068;2022-11-15T14:02:31;4.73;;;4.13;;
1751;SDS011;873;47.696;8.068;2022-11-15T14:10:37;6.10;;;4.97;;
1751;SDS011;873;47.696;8.068;2022-11-15T14:13:03;4.97;;;4.47;;
1751;SDS011;873;47.696;8.068;2022-11-15T14:15:31;9.43;;;5.07;;
1751;SDS011;873;47.696;8.068;2022-11-15T14:17:59;7.23;;;4.90;;
1751;SDS011;873;47.696;8.068;2022-11-15T14:20:26;6.57;;;4.70;;
1751;SDS011;873;47.696;8.068;2022-11-15T14:22:58;6.13;;;4.53;;
1751;SDS011;873;47.696;8.068;2022-11-15T14:25:27;5.13;;;4.57;;
1751;SDS011;873;47.696;8.068;2022-11-15T14:30:42;6.23;;;4.97;;
1751;SDS011;873;47.696;8.068;2022-11-15T14:35:54;5.67;;;4.17;;
1751;SDS011;873;47.696;8.068;2022-11-15T14:38:22;7.37;;;4.53;;
1751;SDS011;873;47.696;8.068;2022-11-15T14:40:49;7.57;;;4.30;;
1751;SDS011;873;47.696;8.068;2022-11-15T14:43:15;5.97;;;4.67;;
1751;SDS011;873;47.696;8.068;2022-11-15T14:45:40;5.90;;;5.30;;
1751;SDS011;873;47.696;8.068;2022-11-15T14:48:06;5.67;;;4.87;;
1751;SDS011;873;47.696;8.068;2022-11-15T14:50:32;6.67;;;4.50;;
1751;SDS011;873;47.696;8.068;2022-11-15T14:52:59;6.60;;;6.10;;
1751;SDS011;873;47.696;8.068;2022-11-15T14:55:25;6.57;;;4.30;;
1751;SDS011;873;47.696;8.068;2022-11-15T14:57:53;7.43;;;5.03;;
1751;SDS011;873;47.696;8.068;2022-11-15T15:00:19;4.93;;;3.83;;
1751;SDS011;873;47.696;8.068;2022-11-15T15:02:45;7.23;;;4.63;;
1751;SDS011;873;47.696;8.068;2022-11-15T15:07:41;5.47;;;4.93;;
1751;SDS011;873;47.696;8.068;2022-11-15T15:10:07;5.03;;;3.83;;
1751;SDS011;873;47.696;8.068;2022-11-15T15:12:34;4.07;;;3.67;;
1751;SDS011;873;47.696;8.068;2022-11-15T15:14:59;4.50;;;4.10;;
1751;SDS011;873;47.696;8.068;2022-11-15T15:17:26;6.10;;;4.60;;
1751;SDS011;873;47.696;8.068;2022-11-15T15:19:52;4.57;;;3.40;;
1751;SDS011;873;47.696;8.068;2022-11-15T15:22:18;4.10;;;3.33;;
1751;SDS011;873;47.696;8.068;2022-11-15T15:24:44;4.43;;;4.03;;
1751;SDS011;873;47.696;8.068;2022-11-15T15:27:11;5.00;;;3.90;;
1751;SDS011;873;47.696;8.068;2022-11-15T15:29:40;4.50;;;3.93;;
1751;SDS011;873;47.696;8.068;2022-11-15T15:32:05;6.10;;;4.00;;
1751;SDS011;873;47.696;8.068;2022-11-15T15:34:31;5.70;;;3.30;;
1751;SDS011;873;47.696;8.068;2022-11-15T15:39:44;4.27;;;3.87;;
1751;SDS011;873;47.696;8.068;2022-11-15T15:42:09;4.50;;;3.50;;
1751;SDS011;873;47.696;8.068;2022-11-15T15:44:35;4.60;;;3.70;;
1751;SDS011;873;47.696;8.068;2022-11-15T15:47:00;5.73;;;3.20;;
1751;SDS011;873;47.696;8.068;2022-11-15T15:49:26;3.97;;;3.20;;
1751;SDS011;873;47.696;8.068;2022-11-15T15:51:52;4.17;;;2.87;;
1751;SDS011;873;47.696;8.068;2022-11-15T15:54:17;4.10;;;3.17;;
1751;SDS011;873;47.696;8.068;2022-11-15T15:56:43;5.20;;;2.90;;
1751;SDS011;873;47.696;8.068;2022-11-15T15:59:09;3.90;;;3.00;;
1751;SDS011;873;47.696;8.068;2022-11-15T16:01:34;2.83;;;2.50;;
1751;SDS011;873;47.696;8.068;2022-11-15T16:04:00;3.30;;;2.67;;
1751;SDS011;873;47.696;8.068;2022-11-15T16:06:32;5.57;;;3.40;;
1751;SDS011;873;47.696;8.068;2022-11-15T16:09:01;4.50;;;3.20;;
1751;SDS011;873;47.696;8.068;2022-11-15T16:11:27;5.20;;;2.83;;
1751;SDS011;873;47.696;8.068;2022-11-15T16:13:53;6.37;;;2.70;;
1751;SDS011;873;47.696;8.068;2022-11-15T16:16:19;3.93;;;2.43;;
1751;SDS011;873;47.696;8.068;2022-11-15T16:18:45;2.77;;;2.50;;
1751;SDS011;873;47.696;8.068;2022-11-15T16:21:11;3.37;;;2.90;;
1751;SDS011;873;47.696;8.068;2022-11-15T16:23:36;3.27;;;2.60;;
1751;SDS011;873;47.696;8.068;2022-11-15T16:26:02;2.07;;;1.87;;
1751;SDS011;873;47.696;8.068;2022-11-15T16:28:40;5.80;;;2.40;;
1751;SDS011;873;47.696;8.068;2022-11-15T16:31:07;5.17;;;2.80;;
1751;SDS011;873;47.696;8.068;2022-11-15T16:33:34;3.33;;;2.50;;
1751;SDS011;873;47.696;8.068;2022-11-15T16:36:01;4.80;;;3.23;;
1751;SDS011;873;47.696;8.068;2022-11-15T16:38:27;6.03;;;2.63;;
1751;SDS011;873;47.696;8.068;2022-11-15T16:40:53;2.57;;;2.23;;
1751;SDS011;873;47.696;8.068;2022-11-15T16:43:18;5.03;;;2.70;;
1751;SDS011;873;47.696;8.068;2022-11-15T16:45:44;3.33;;;2.60;;
1751;SDS011;873;47.696;8.068;2022-11-15T16:48:18;3.40;;;2.20;;
1751;SDS011;873;47.696;8.068;2022-11-15T16:50:47;4.03;;;3.63;;
1751;SDS011;873;47.696;8.068;2022-11-15T16:53:13;4.43;;;2.63;;
1751;SDS011;873;47.696;8.068;2022-11-15T16:55:38;4.33;;;2.80;;
1751;SDS011;873;47.696;8.068;2022-11-15T16:58:04;4.00;;;2.73;;
1751;SDS011;873;47.696;8.068;2022-11-15T17:00:29;5.83;;;3.00;;
1751;SDS011;873;47.696;8.068;2022-11-15T17:02:55;3.73;;;2.47;;
1751;SDS011;873;47.696;8.068;2022-11-15T17:05:22;2.60;;;1.90;;
1751;SDS011;873;47.696;8.068;2022-11-15T17:07:49;3.40;;;1.87;;
1751;SDS011;873;47.696;8.068;2022-11-15T17:10:18;6.23;;;1.80;;
1751;SDS011;873;47.696;8.068;2022-11-15T17:12:45;2.43;;;1.80;;
1751;SDS011;873;47.696;8.068;2022-11-15T17:15:11;2.80;;;2.27;;
1751;SDS011;873;47.696;8.068;2022-11-15T17:17:38;3.00;;;2.20;;
1751;SDS011;873;47.696;8.068;2022-11-15T17:20:04;4.27;;;2.50;;
1751;SDS011;873;47.696;8.068;2022-11-15T17:22:34;3.23;;;2.10;;
1751;SDS011;873;47.696;8.068;2022-11-15T17:25:00;2.70;;;1.97;;
1751;SDS011;873;47.696;8.068;2022-11-15T17:27:27;2.40;;;1.80;;
1751;SDS011;873;47.696;8.068;2022-11-15T17:29:52;4.07;;;2.90;;
1751;SDS011;873;47.696;8.068;2022-11-15T17:32:18;3.93;;;1.67;;
1751;SDS011;873;47.696;8.068;2022-11-15T17:34:43;2.83;;;2.13;;
1751;SDS011;873;47.696;8.068;2022-11-15T17:37:09;2.30;;;1.67;;
1751;SDS011;873;47.696;8.068;2022-11-15T17:39:34;2.13;;;1.53;;
1751;SDS011;873;47.696;8.068;2022-11-15T17:42:00;3.40;;;1.90;;
1751;SDS011;873;47.696;8.068;2022-11-15T17:44:26;2.47;;;2.13;;
1751;SDS011;873;47.696;8.068;2022-11-15T17:46:52;2.13;;;1.30;;
1751;SDS011;873;47.696;8.068;2022-11-15T17:49:18;2.50;;;1.93;;
1751;SDS011;873;47.696;8.068;2022-11-15T17:51:43;2.20;;;1.90;;
1751;SDS011;873;47.696;8.068;2022-11-15T17:54:10;1.70;;;1.40;;